Portada
METAR-TAF:

METAR-TAF

Aeroports :

Hua Hin, Tailàndia

latitud: 12-35N, longitud: 099-57E, altitud: 5 m

Observació

L'informe es va fer fa 2 hores i 4 minuts, a les 11:00 UTC
Vent 13 kt del Sud/Sud-Est
Temperatura 30°C
Humitat 79%
Pressió 1007 hPa
Visibilitat 10 km o més
Escasses núvols a una alçada de 3200 ft

METAR: VTPH 311100Z 15013KT 9999 FEW032 30/26 Q1007 NOSIG

Hora: 20:04 (13:04 UTC)

Pronòstic

L'informe es va fer fa 2 hores i 4 minuts, a les 11:00 UTC
Pronòstic vàlid del 31 a les 12 UTC al 01 a les 12 UTC
Vent 8 kt del Sud-Est
Visibilitat 10 km o més
Escasses núvols a una alçada de 3000 ft

TAF: VTPH 311100Z 3112/0112 14008KT 9999 FEW030

Observacions i pronòstics meteorològics de més de 4000 aeroports (METAR i TAF).

Les estacions disponibles són els punts grocs i vermells al mapa.

Posi el ratolí al punt desitjat per veure el nom de l'estació.

Feu clic per veure les observacions i els pronòstics meteorològics.

Per canviar el mapa: feu clic els botons verds amb una creu de color negre per apropar; al botó verd amb un guió per allunyar la imatge; o en les fletxes verdes per a mapes adjacents.


METAR-TAF: